createdAt,value
2023-05-23T00:00:02.281Z,13.23
2023-05-23T00:02:55.419Z,12.18
2023-05-23T00:05:41.012Z,12.48
2023-05-23T00:08:33.334Z,12.10
2023-05-23T00:11:20.342Z,14.15
2023-05-23T00:14:15.332Z,14.32
2023-05-23T00:17:08.566Z,13.80
2023-05-23T00:19:56.118Z,14.13
2023-05-23T00:22:51.395Z,14.38
2023-05-23T00:25:38.202Z,13.93
2023-05-23T00:28:30.359Z,13.73
2023-05-23T00:31:15.980Z,13.98
2023-05-23T00:34:07.365Z,14.13
2023-05-23T00:36:54.241Z,16.75
2023-05-23T00:39:46.443Z,14.45
2023-05-23T00:42:33.104Z,13.77
2023-05-23T00:45:25.428Z,12.43
2023-05-23T00:48:18.401Z,12.90
2023-05-23T00:51:10.439Z,13.80
2023-05-23T00:54:03.369Z,13.57
2023-05-23T00:56:55.485Z,13.10
2023-05-23T00:59:47.391Z,15.05
2023-05-23T01:02:33.616Z,12.75
2023-05-23T01:05:29.396Z,12.77
2023-05-23T01:08:15.881Z,11.05
2023-05-23T01:11:26.506Z,9.70
2023-05-23T01:14:18.917Z,8.43
2023-05-23T01:17:48.469Z,8.45
2023-05-23T01:20:51.455Z,7.30
2023-05-23T01:24:11.493Z,6.50
2023-05-23T01:27:24.984Z,6.80
2023-05-23T01:30:19.440Z,6.82
2023-05-23T01:33:05.784Z,6.78
2023-05-23T01:35:58.443Z,7.18
2023-05-23T01:38:43.677Z,6.85
2023-05-23T01:41:35.465Z,6.47
2023-05-23T01:44:21.473Z,6.85
2023-05-23T01:47:16.493Z,7.97
2023-05-23T01:50:09.572Z,8.23
2023-05-23T01:52:56.730Z,7.28
2023-05-23T01:55:49.489Z,7.68
2023-05-23T02:01:27.527Z,7.03
2023-05-23T02:04:20.476Z,6.45
2023-05-23T02:07:12.508Z,7.80
2023-05-23T02:10:04.519Z,8.43
2023-05-23T02:12:56.554Z,8.18
2023-05-23T02:15:42.370Z,7.90
2023-05-23T02:18:35.550Z,7.95
2023-05-23T02:21:27.536Z,7.40
2023-05-23T02:24:13.017Z,7.35
2023-05-23T02:27:05.520Z,8.90
2023-05-23T02:29:57.491Z,9.50
2023-05-23T02:32:49.584Z,9.90
2023-05-23T02:35:35.429Z,8.77
2023-05-23T02:38:27.620Z,9.68
2023-05-23T02:41:13.058Z,9.80
2023-05-23T02:44:05.525Z,8.77
2023-05-23T02:46:57.573Z,8.25
2023-05-23T02:49:49.547Z,7.83
2023-05-23T02:52:41.563Z,9.35
2023-05-23T02:55:33.560Z,8.43
2023-05-23T02:58:25.592Z,10.65
2023-05-23T03:01:12.046Z,9.73
2023-05-23T03:04:03.804Z,10.32
2023-05-23T03:06:49.266Z,9.73
2023-05-23T03:09:41.553Z,8.95
2023-05-23T03:12:29.104Z,10.13
2023-05-23T03:15:20.577Z,10.40
2023-05-23T03:18:06.039Z,9.82
2023-05-23T03:20:57.581Z,9.65
2023-05-23T03:23:42.919Z,10.88
2023-05-23T03:26:34.571Z,9.65
2023-05-23T03:29:20.088Z,9.20
2023-05-23T03:32:12.718Z,10.80
2023-05-23T03:35:04.597Z,9.82
2023-05-23T03:37:56.613Z,10.33
2023-05-23T03:40:48.582Z,10.00
2023-05-23T03:43:34.177Z,9.05
2023-05-23T03:46:26.753Z,9.32
2023-05-23T03:49:12.180Z,8.88
2023-05-23T03:52:10.614Z,8.02
2023-05-23T03:55:02.617Z,9.07
2023-05-23T03:58:00.637Z,9.18
2023-05-23T04:00:46.549Z,7.95
2023-05-23T04:03:39.726Z,7.82
2023-05-23T04:06:25.238Z,8.55
2023-05-23T04:09:16.655Z,7.22
2023-05-23T04:12:08.665Z,8.30
2023-05-23T04:14:54.092Z,6.93
2023-05-23T04:17:45.736Z,6.43
2023-05-23T04:20:31.335Z,6.85
2023-05-23T04:23:23.687Z,6.15
2023-05-23T04:26:10.490Z,6.25
2023-05-23T04:29:02.773Z,5.55
2023-05-23T04:34:47.687Z,4.90
2023-05-23T04:37:33.550Z,5.05
2023-05-23T04:40:25.714Z,5.35
2023-05-23T04:43:14.272Z,5.22
2023-05-23T04:46:06.819Z,5.35
2023-05-23T04:48:53.499Z,5.22
2023-05-23T04:51:45.878Z,5.28
2023-05-23T04:54:31.382Z,5.18
2023-05-23T04:57:23.853Z,5.20
2023-05-23T05:00:19.765Z,5.45
2023-05-23T05:03:05.178Z,5.15
2023-05-23T05:05:57.730Z,5.43
2023-05-23T05:08:43.505Z,6.05
2023-05-23T05:11:34.756Z,4.93
2023-05-23T05:14:20.367Z,5.60
2023-05-23T05:17:11.874Z,5.18
2023-05-23T05:19:57.235Z,5.85
2023-05-23T05:22:49.862Z,5.35
2023-05-23T05:25:42.788Z,5.60
2023-05-23T05:28:28.366Z,5.35
2023-05-23T05:31:21.822Z,5.80
2023-05-23T05:34:14.191Z,5.28
2023-05-23T05:37:05.849Z,5.55
2023-05-23T05:39:51.304Z,5.70
2023-05-23T05:42:42.797Z,6.20
2023-05-23T05:45:28.186Z,5.55
2023-05-23T05:48:20.852Z,6.70
2023-05-23T05:51:12.826Z,6.63
2023-05-23T05:53:57.966Z,6.25
2023-05-23T05:56:49.860Z,7.15
2023-05-23T05:59:35.455Z,6.38
2023-05-23T06:02:27.951Z,6.88
2023-05-23T06:05:26.835Z,8.00
2023-05-23T06:08:18.877Z,6.78
2023-05-23T06:11:04.300Z,7.10
2023-05-23T06:13:55.883Z,7.03
2023-05-23T06:16:41.423Z,6.95
2023-05-23T06:19:34.005Z,6.53
2023-05-23T06:22:19.486Z,6.63
2023-05-23T06:25:11.946Z,6.75
2023-05-23T06:27:57.604Z,6.68
2023-05-23T06:30:49.879Z,5.90
2023-05-23T06:33:41.940Z,5.75
2023-05-23T06:36:27.207Z,6.22
2023-05-23T06:39:18.988Z,6.03
2023-05-23T06:42:11.964Z,5.30
2023-05-23T06:44:57.554Z,4.95
2023-05-23T06:47:51.952Z,5.22
2023-05-23T06:50:37.578Z,5.07
2023-05-23T06:53:29.970Z,5.72
2023-05-23T06:56:15.134Z,5.63
2023-05-23T06:59:06.945Z,5.22
2023-05-23T07:01:58.929Z,4.40
2023-05-23T07:04:44.261Z,4.27
2023-05-23T07:07:35.973Z,3.53
2023-05-23T07:10:21.865Z,2.85
2023-05-23T07:13:13.997Z,2.90
2023-05-23T07:16:00.145Z,3.08
2023-05-23T07:18:52.030Z,2.83
2023-05-23T07:21:47.968Z,3.13
2023-05-23T07:24:33.499Z,2.90
2023-05-23T07:27:25.150Z,2.72
2023-05-23T07:30:10.699Z,3.03
2023-05-23T07:33:02.037Z,4.13
2023-05-23T07:35:47.778Z,3.55
2023-05-23T07:38:40.068Z,3.33
2023-05-23T07:41:25.580Z,3.83
2023-05-23T07:44:18.015Z,3.20
2023-05-23T07:47:04.975Z,3.20
2023-05-23T07:49:59.009Z,3.08
2023-05-23T07:52:44.464Z,2.95
2023-05-23T07:55:36.000Z,3.65
2023-05-23T07:58:21.587Z,3.30
2023-05-23T08:01:14.041Z,3.63
2023-05-23T08:03:59.327Z,2.90
2023-05-23T08:07:04.928Z,2.83
2023-05-23T08:09:58.027Z,3.38
2023-05-23T08:12:50.067Z,2.83
2023-05-23T08:15:35.591Z,3.10
2023-05-23T08:18:27.078Z,2.67
2023-05-23T08:21:12.418Z,3.13
2023-05-23T08:24:05.069Z,3.00
2023-05-23T08:26:50.844Z,3.10
2023-05-23T08:29:44.097Z,4.07
2023-05-23T08:32:36.157Z,3.15
2023-05-23T08:35:29.064Z,3.25
2023-05-23T08:38:14.699Z,3.85
2023-05-23T08:41:09.115Z,3.28
2023-05-23T08:44:01.129Z,3.80
2023-05-23T08:46:49.802Z,3.78
2023-05-23T08:49:42.418Z,3.50
2023-05-23T08:52:37.109Z,3.60
2023-05-23T08:55:27.310Z,2.85
2023-05-23T08:58:20.088Z,3.45
2023-05-23T09:01:06.032Z,2.78
2023-05-23T09:03:58.107Z,3.97
2023-05-23T09:06:50.137Z,2.80
2023-05-23T09:09:42.148Z,3.10
2023-05-23T09:12:27.631Z,3.33
2023-05-23T09:15:20.181Z,4.18
2023-05-23T09:18:05.808Z,4.30
2023-05-23T09:20:58.158Z,3.70
2023-05-23T09:23:50.137Z,3.38
2023-05-23T09:26:42.216Z,7.13
2023-05-23T09:29:28.383Z,3.78
2023-05-23T09:32:22.251Z,3.17
2023-05-23T09:35:19.167Z,2.97
2023-05-23T09:38:08.427Z,3.53
2023-05-23T09:41:03.246Z,3.55
2023-05-23T09:43:53.012Z,3.58
2023-05-23T09:46:45.278Z,3.50
2023-05-23T09:52:31.210Z,3.30
2023-05-23T09:55:16.990Z,3.75
2023-05-23T09:58:11.205Z,3.50
2023-05-23T10:01:04.357Z,3.40
2023-05-23T10:03:59.942Z,3.92
2023-05-23T10:07:01.229Z,3.25
2023-05-23T10:09:59.987Z,2.88
2023-05-23T10:12:58.294Z,2.97
2023-05-23T10:15:44.266Z,3.13
2023-05-23T10:18:39.235Z,3.50
2023-05-23T10:21:32.225Z,3.17
2023-05-23T10:24:25.281Z,3.33
2023-05-23T10:27:12.349Z,3.10
2023-05-23T10:30:06.231Z,3.08
2023-05-23T10:32:59.413Z,2.75
2023-05-23T10:35:56.477Z,3.03
2023-05-23T10:38:51.763Z,3.00
2023-05-23T10:41:51.362Z,2.90
2023-05-23T10:44:36.892Z,2.67
2023-05-23T10:47:36.378Z,3.80
2023-05-23T10:50:37.276Z,3.10
2023-05-23T10:53:30.354Z,3.80
2023-05-23T10:56:23.660Z,3.50
2023-05-23T10:59:30.385Z,3.45
2023-05-23T11:02:25.301Z,2.88
2023-05-23T11:05:22.160Z,2.42
2023-05-23T11:08:20.298Z,3.22
2023-05-23T11:11:05.860Z,2.90
2023-05-23T11:14:02.356Z,3.28
2023-05-23T11:16:49.211Z,3.03
2023-05-23T11:19:41.531Z,3.47
2023-05-23T11:22:31.694Z,3.05
2023-05-23T11:25:23.364Z,2.60
2023-05-23T11:28:09.199Z,2.53
2023-05-23T11:31:03.340Z,2.63
2023-05-23T11:33:51.740Z,2.58
2023-05-23T11:36:44.363Z,2.58
2023-05-23T11:39:29.709Z,2.80
2023-05-23T11:42:21.358Z,3.17
2023-05-23T11:45:16.474Z,2.92
2023-05-23T11:48:09.743Z,2.53
2023-05-23T11:51:01.354Z,2.50
2023-05-23T11:53:47.859Z,2.83
2023-05-23T11:56:46.377Z,2.60
2023-05-23T11:59:32.019Z,3.00
2023-05-23T12:02:23.462Z,2.83
2023-05-23T12:05:20.426Z,2.95
2023-05-23T12:08:06.517Z,3.05
2023-05-23T12:10:59.408Z,2.85
2023-05-23T12:13:44.916Z,3.53
2023-05-23T12:16:37.495Z,3.03
2023-05-23T12:19:31.472Z,2.80
2023-05-23T12:22:24.364Z,2.83
2023-05-23T12:25:19.497Z,2.58
2023-05-23T12:28:12.457Z,3.55
2023-05-23T12:30:57.853Z,3.17
2023-05-23T12:33:51.460Z,3.03
2023-05-23T12:36:48.018Z,3.03
2023-05-23T12:39:43.483Z,2.80
2023-05-23T12:42:35.505Z,3.00
2023-05-23T12:45:30.472Z,2.63
2023-05-23T12:48:23.527Z,2.53
2023-05-23T12:51:15.490Z,2.60
2023-05-23T12:54:02.049Z,2.45
2023-05-23T12:56:54.476Z,2.63
2023-05-23T12:59:40.176Z,2.10
2023-05-23T13:02:32.511Z,2.75
2023-05-23T13:05:24.503Z,3.10
2023-05-23T13:08:10.060Z,3.53
2023-05-23T13:11:02.512Z,4.82
2023-05-23T13:13:54.488Z,3.22
2023-05-23T13:16:47.572Z,2.95
2023-05-23T13:19:33.490Z,2.65
2023-05-23T13:22:25.706Z,2.83
2023-05-23T13:25:11.591Z,2.35
2023-05-23T13:28:04.550Z,2.85
2023-05-23T13:30:50.418Z,2.88
2023-05-23T13:33:42.630Z,2.78
2023-05-23T13:36:28.736Z,3.38
2023-05-23T13:39:20.532Z,3.00
2023-05-23T13:42:09.989Z,2.88
2023-05-23T13:45:01.571Z,2.92
2023-05-23T13:47:47.382Z,3.10
2023-05-23T13:50:39.806Z,2.67
2023-05-23T13:53:38.596Z,2.65
2023-05-23T13:56:31.609Z,2.92
2023-05-23T13:59:21.188Z,2.65
2023-05-23T14:02:14.712Z,2.85
2023-05-23T14:05:00.669Z,2.17
2023-05-23T14:07:53.674Z,2.83
2023-05-23T14:10:39.110Z,3.17
2023-05-23T14:13:30.575Z,2.83
2023-05-23T14:16:16.289Z,2.28
2023-05-23T14:19:08.652Z,2.10
2023-05-23T14:21:53.968Z,3.13
2023-05-23T14:24:45.611Z,2.80
2023-05-23T14:27:38.750Z,3.15
2023-05-23T14:30:23.971Z,2.63
2023-05-23T14:33:15.696Z,2.78
2023-05-23T14:36:01.623Z,3.08
2023-05-23T14:38:53.653Z,2.72
2023-05-23T14:41:38.878Z,2.22
2023-05-23T14:44:30.737Z,2.33
2023-05-23T14:47:22.724Z,2.22
2023-05-23T14:50:08.699Z,2.50
2023-05-23T14:53:00.707Z,2.47
2023-05-23T14:55:52.683Z,2.60
2023-05-23T14:58:40.254Z,2.30
2023-05-23T15:01:32.761Z,2.08
2023-05-23T15:04:24.794Z,2.70
2023-05-23T15:07:16.717Z,2.28
2023-05-23T15:10:09.706Z,2.80
2023-05-23T15:13:01.725Z,1.90
2023-05-23T15:15:49.056Z,2.38
2023-05-23T15:18:42.094Z,2.17
2023-05-23T15:21:34.760Z,2.55
2023-05-23T15:27:21.148Z,3.33
2023-05-23T15:30:07.447Z,2.42
2023-05-23T15:33:01.386Z,2.60
2023-05-23T15:35:53.705Z,2.55
2023-05-23T15:38:39.340Z,2.42
2023-05-23T15:41:30.748Z,2.25
2023-05-23T15:44:19.695Z,2.60
2023-05-23T15:47:17.806Z,2.35
2023-05-23T15:50:10.336Z,2.03
2023-05-23T15:53:03.788Z,2.53
2023-05-23T15:58:47.855Z,2.25
2023-05-23T16:04:26.769Z,2.80
2023-05-23T16:07:18.835Z,2.13
2023-05-23T16:12:57.812Z,2.78
2023-05-23T16:15:43.793Z,2.55
2023-05-23T16:18:35.878Z,2.45
2023-05-23T16:21:21.270Z,2.15
2023-05-23T16:24:13.834Z,2.10
2023-05-23T16:29:51.834Z,2.30
2023-05-23T16:32:44.021Z,2.22
2023-05-23T16:35:35.834Z,1.90
2023-05-23T16:38:21.418Z,2.47
2023-05-23T16:41:12.865Z,2.10
2023-05-23T16:43:58.343Z,2.57
2023-05-23T16:46:50.906Z,2.00
2023-05-23T16:49:42.942Z,2.20
2023-05-23T16:52:28.283Z,2.28
2023-05-23T16:55:19.850Z,2.25
2023-05-23T16:58:05.410Z,2.33
2023-05-23T17:00:57.909Z,2.50
2023-05-23T17:03:43.414Z,1.67
2023-05-23T17:06:34.875Z,2.33
2023-05-23T17:09:22.217Z,2.17
2023-05-23T17:12:14.886Z,3.40
2023-05-23T17:15:06.903Z,2.30
2023-05-23T17:17:52.567Z,1.83
2023-05-23T17:20:44.895Z,2.72
2023-05-23T17:23:30.452Z,2.05
2023-05-23T17:26:21.876Z,2.22
2023-05-23T17:29:13.897Z,1.93
2023-05-23T17:32:05.953Z,2.10
2023-05-23T17:34:51.593Z,2.65
2023-05-23T17:37:42.963Z,2.03
2023-05-23T17:40:35.016Z,1.67
2023-05-23T17:43:20.851Z,1.60
2023-05-23T17:46:12.981Z,2.00
2023-05-23T17:49:04.944Z,2.40
2023-05-23T17:51:56.955Z,2.40
2023-05-23T17:54:48.964Z,2.50
2023-05-23T17:57:40.943Z,1.63
2023-05-23T18:00:26.361Z,2.40
2023-05-23T18:03:17.981Z,1.90
2023-05-23T18:06:10.007Z,1.70
2023-05-23T18:09:01.978Z,1.80
2023-05-23T18:11:48.177Z,2.60
2023-05-23T18:14:39.976Z,2.63
2023-05-23T18:17:25.673Z,2.15
2023-05-23T18:20:17.973Z,2.30
2023-05-23T18:23:10.103Z,2.00
2023-05-23T18:25:55.397Z,2.25
2023-05-23T18:28:48.064Z,2.58
2023-05-23T18:31:40.078Z,2.65
2023-05-23T18:34:28.484Z,2.38
2023-05-23T18:37:21.045Z,2.83
2023-05-23T18:40:07.964Z,2.45
2023-05-23T18:43:00.061Z,2.17
2023-05-23T18:45:45.751Z,2.10
2023-05-23T18:48:38.100Z,1.92
2023-05-23T18:51:30.049Z,2.28
2023-05-23T18:54:22.056Z,1.85
2023-05-23T18:57:29.053Z,2.30
2023-05-23T19:00:28.043Z,2.10
2023-05-23T19:03:14.678Z,1.95
2023-05-23T19:06:10.030Z,2.00
2023-05-23T19:08:56.098Z,2.15
2023-05-23T19:11:48.113Z,2.10
2023-05-23T19:14:33.741Z,2.63
2023-05-23T19:17:26.153Z,2.40
2023-05-23T19:23:05.064Z,2.30
2023-05-23T19:25:50.792Z,2.10
2023-05-23T19:28:42.147Z,2.20
2023-05-23T19:31:35.116Z,2.55
2023-05-23T19:34:27.090Z,2.70
2023-05-23T19:37:26.156Z,2.87
2023-05-23T19:40:12.005Z,1.90
2023-05-23T19:43:04.116Z,2.80
2023-05-23T19:45:56.102Z,2.60
2023-05-23T19:48:42.515Z,2.15
2023-05-23T19:51:35.091Z,3.10
2023-05-23T19:54:28.146Z,3.55
2023-05-23T19:57:13.902Z,2.65
2023-05-23T20:00:06.141Z,2.53
2023-05-23T20:02:51.844Z,2.65
2023-05-23T20:05:44.237Z,2.70
2023-05-23T20:08:29.855Z,2.40
2023-05-23T20:11:22.229Z,2.15
2023-05-23T20:14:14.190Z,2.00
2023-05-23T20:16:59.933Z,3.33
2023-05-23T20:19:52.190Z,3.50
2023-05-23T20:22:38.427Z,2.97
2023-05-23T20:25:30.160Z,2.42
2023-05-23T20:28:15.435Z,2.20
2023-05-23T20:31:07.232Z,2.83
2023-05-23T20:33:52.704Z,2.07
2023-05-23T20:36:45.196Z,2.47
2023-05-23T20:39:31.009Z,2.28
2023-05-23T20:42:23.183Z,3.35
2023-05-23T20:45:09.523Z,3.03
2023-05-23T20:48:02.224Z,2.50
2023-05-23T20:50:47.668Z,2.35
2023-05-23T20:53:39.370Z,2.88
2023-05-23T20:56:31.281Z,2.58
2023-05-23T20:59:18.027Z,2.22
2023-05-23T21:02:10.255Z,2.33
2023-05-23T21:04:55.500Z,2.50
2023-05-23T21:07:47.274Z,1.90
2023-05-23T21:10:39.386Z,3.05
2023-05-23T21:13:25.038Z,3.08
2023-05-23T21:16:21.290Z,2.10
2023-05-23T21:19:14.344Z,2.25
2023-05-23T21:22:00.261Z,2.72
2023-05-23T21:24:52.258Z,2.67
2023-05-23T21:27:43.951Z,3.10
2023-05-23T21:30:35.328Z,2.28
2023-05-23T21:33:27.340Z,2.45
2023-05-23T21:36:12.872Z,2.55
2023-05-23T21:39:05.397Z,2.80
2023-05-23T21:41:51.134Z,2.95
2023-05-23T21:44:43.513Z,2.55
2023-05-23T21:47:29.125Z,3.38
2023-05-23T21:50:21.326Z,2.75
2023-05-23T21:53:06.887Z,2.70
2023-05-23T21:55:59.331Z,2.78
2023-05-23T21:58:44.840Z,2.65
2023-05-23T22:01:36.327Z,2.45
2023-05-23T22:04:21.825Z,2.55
2023-05-23T22:07:14.380Z,2.72
2023-05-23T22:09:59.851Z,2.85
2023-05-23T22:12:52.425Z,2.85
2023-05-23T22:15:44.342Z,3.13
2023-05-23T22:18:51.006Z,2.92
2023-05-23T22:21:44.323Z,2.55
2023-05-23T22:24:29.875Z,2.65
2023-05-23T22:27:22.447Z,2.72
2023-05-23T22:30:08.380Z,2.53
2023-05-23T22:33:00.441Z,2.47
2023-05-23T22:35:53.388Z,2.40
2023-05-23T22:38:38.969Z,2.47
2023-05-23T22:41:31.388Z,2.42
2023-05-23T22:44:23.421Z,3.00
2023-05-23T22:47:20.521Z,2.65
2023-05-23T22:50:06.600Z,2.80
2023-05-23T22:52:58.470Z,2.92
2023-05-23T22:55:50.431Z,2.80
2023-05-23T22:58:35.758Z,2.72
2023-05-23T23:01:28.692Z,2.45
2023-05-23T23:04:21.469Z,3.42
2023-05-23T23:07:08.665Z,3.08
2023-05-23T23:10:00.463Z,3.15
2023-05-23T23:12:52.466Z,2.90
2023-05-23T23:15:38.633Z,2.90
2023-05-23T23:18:33.534Z,2.58
2023-05-23T23:21:18.878Z,3.13
2023-05-23T23:24:11.600Z,3.05
2023-05-23T23:27:03.500Z,3.15
2023-05-23T23:29:48.880Z,3.92
2023-05-23T23:32:40.470Z,3.25
2023-05-23T23:35:32.467Z,3.03
2023-05-23T23:38:24.555Z,3.20
2023-05-23T23:41:09.827Z,2.92
2023-05-23T23:44:01.517Z,2.85
2023-05-23T23:46:47.198Z,2.70
2023-05-23T23:49:39.509Z,2.70
2023-05-23T23:52:24.897Z,3.03
2023-05-23T23:55:17.521Z,2.63
2023-05-23T23:58:02.842Z,2.53
